sensor_id;sensor_type;location;lat;lon;timestamp;pressure;altitude;pressure_sealevel;temperature;humidity
54389;BME280;40975;50.390;8.640;2023-04-08T00:02:16;99470.81;;;3.21;100.00
54389;BME280;40975;50.390;8.640;2023-04-08T00:04:41;99474.53;;;3.17;100.00
54389;BME280;40975;50.390;8.640;2023-04-08T00:07:06;99462.72;;;3.09;100.00
54389;BME280;40975;50.390;8.640;2023-04-08T00:09:32;99472.44;;;3.07;100.00
54389;BME280;40975;50.390;8.640;2023-04-08T00:11:57;99469.34;;;3.01;100.00
54389;BME280;40975;50.390;8.640;2023-04-08T00:14:23;99469.44;;;2.99;100.00
54389;BME280;40975;50.390;8.640;2023-04-08T00:16:48;99474.19;;;2.92;100.00
54389;BME280;40975;50.390;8.640;2023-04-08T00:19:13;99467.63;;;2.85;100.00
54389;BME280;40975;50.390;8.640;2023-04-08T00:21:38;99461.88;;;2.78;100.00
54389;BME280;40975;50.390;8.640;2023-04-08T00:24:05;99463.69;;;2.78;100.00
54389;BME280;40975;50.390;8.640;2023-04-08T00:26:31;99465.53;;;2.76;100.00
54389;BME280;40975;50.390;8.640;2023-04-08T00:28:56;99462.06;;;2.75;100.00
54389;BME280;40975;50.390;8.640;2023-04-08T00:31:22;99468.06;;;2.77;100.00
54389;BME280;40975;50.390;8.640;2023-04-08T00:33:47;99466.47;;;2.75;100.00
54389;BME280;40975;50.390;8.640;2023-04-08T00:36:12;99465.63;;;2.74;100.00
54389;BME280;40975;50.390;8.640;2023-04-08T00:38:37;99463.19;;;2.71;100.00
54389;BME280;40975;50.390;8.640;2023-04-08T00:41:03;99459.78;;;2.69;100.00
54389;BME280;40975;50.390;8.640;2023-04-08T00:43:28;99469.75;;;2.78;100.00
54389;BME280;40975;50.390;8.640;2023-04-08T00:45:53;99465.16;;;2.82;100.00
54389;BME280;40975;50.390;8.640;2023-04-08T00:48:19;99469.47;;;2.83;100.00
54389;BME280;40975;50.390;8.640;2023-04-08T00:50:44;99474.91;;;2.80;100.00
54389;BME280;40975;50.390;8.640;2023-04-08T00:53:14;99476.69;;;2.79;100.00
54389;BME280;40975;50.390;8.640;2023-04-08T00:55:41;99467.50;;;2.72;100.00
54389;BME280;40975;50.390;8.640;2023-04-08T00:58:07;99475.53;;;2.69;100.00
54389;BME280;40975;50.390;8.640;2023-04-08T01:00:33;99477.22;;;2.70;100.00
54389;BME280;40975;50.390;8.640;2023-04-08T01:05:54;99476.19;;;2.73;100.00
54389;BME280;40975;50.390;8.640;2023-04-08T01:08:20;99477.22;;;2.70;100.00
54389;BME280;40975;50.390;8.640;2023-04-08T01:10:53;99479.06;;;2.68;100.00
54389;BME280;40975;50.390;8.640;2023-04-08T01:13:22;99477.06;;;2.73;100.00
54389;BME280;40975;50.390;8.640;2023-04-08T01:15:49;99479.06;;;2.68;100.00
54389;BME280;40975;50.390;8.640;2023-04-08T01:18:15;99471.31;;;2.67;100.00
54389;BME280;40975;50.390;8.640;2023-04-08T01:20:42;99481.97;;;2.63;100.00
54389;BME280;40975;50.390;8.640;2023-04-08T01:23:38;99469.22;;;2.57;100.00
54389;BME280;40975;50.390;8.640;2023-04-08T01:26:05;99479.97;;;2.53;100.00
54389;BME280;40975;50.390;8.640;2023-04-08T01:28:31;99483.94;;;2.44;100.00
54389;BME280;40975;50.390;8.640;2023-04-08T01:30:59;99475.22;;;2.43;100.00
54389;BME280;40975;50.390;8.640;2023-04-08T01:33:26;99481.66;;;2.38;100.00
54389;BME280;40975;50.390;8.640;2023-04-08T01:35:54;99478.94;;;2.39;100.00
54389;BME280;40975;50.390;8.640;2023-04-08T01:38:22;99491.13;;;2.40;100.00
54389;BME280;40975;50.390;8.640;2023-04-08T01:40:48;99483.41;;;2.37;100.00
54389;BME280;40975;50.390;8.640;2023-04-08T01:43:16;99467.69;;;2.21;100.00
54389;BME280;40975;50.390;8.640;2023-04-08T01:45:46;99483.34;;;2.23;100.00
54389;BME280;40975;50.390;8.640;2023-04-08T01:48:13;99483.00;;;2.13;100.00
54389;BME280;40975;50.390;8.640;2023-04-08T01:50:41;99480.72;;;2.07;100.00
54389;BME280;40975;50.390;8.640;2023-04-08T01:53:08;99485.28;;;2.03;100.00
54389;BME280;40975;50.390;8.640;2023-04-08T01:55:35;99488.59;;;2.07;100.00
54389;BME280;40975;50.390;8.640;2023-04-08T01:58:02;99478.38;;;2.02;100.00
54389;BME280;40975;50.390;8.640;2023-04-08T02:00:30;99490.09;;;2.11;100.00
54389;BME280;40975;50.390;8.640;2023-04-08T02:02:57;99486.78;;;2.07;100.00
54389;BME280;40975;50.390;8.640;2023-04-08T02:05:23;99489.41;;;2.07;100.00
54389;BME280;40975;50.390;8.640;2023-04-08T02:07:49;99489.75;;;2.01;100.00
54389;BME280;40975;50.390;8.640;2023-04-08T02:10:15;99486.72;;;1.93;100.00
54389;BME280;40975;50.390;8.640;2023-04-08T02:12:41;99482.28;;;1.77;100.00
54389;BME280;40975;50.390;8.640;2023-04-08T02:15:09;99490.31;;;1.74;100.00
54389;BME280;40975;50.390;8.640;2023-04-08T02:17:45;99487.47;;;1.79;100.00
54389;BME280;40975;50.390;8.640;2023-04-08T02:20:20;99490.06;;;1.79;100.00
54389;BME280;40975;50.390;8.640;2023-04-08T02:23:02;99488.28;;;1.79;100.00
54389;BME280;40975;50.390;8.640;2023-04-08T02:25:33;99494.28;;;1.81;100.00
54389;BME280;40975;50.390;8.640;2023-04-08T02:28:02;99499.78;;;1.77;100.00
54389;BME280;40975;50.390;8.640;2023-04-08T02:30:30;99503.41;;;1.74;100.00
54389;BME280;40975;50.390;8.640;2023-04-08T02:32:57;99498.31;;;1.71;100.00
54389;BME280;40975;50.390;8.640;2023-04-08T02:35:23;99505.31;;;1.70;100.00
54389;BME280;40975;50.390;8.640;2023-04-08T02:37:49;99506.31;;;1.68;100.00
54389;BME280;40975;50.390;8.640;2023-04-08T02:40:25;99500.31;;;1.66;100.00
54389;BME280;40975;50.390;8.640;2023-04-08T02:42:52;99502.34;;;1.61;100.00
54389;BME280;40975;50.390;8.640;2023-04-08T02:45:17;99515.34;;;1.62;100.00
54389;BME280;40975;50.390;8.640;2023-04-08T02:47:43;99512.13;;;1.57;100.00
54389;BME280;40975;50.390;8.640;2023-04-08T02:50:09;99510.53;;;1.54;100.00
54389;BME280;40975;50.390;8.640;2023-04-08T02:52:34;99505.50;;;1.50;100.00
54389;BME280;40975;50.390;8.640;2023-04-08T02:55:00;99507.44;;;1.46;100.00
54389;BME280;40975;50.390;8.640;2023-04-08T02:57:25;99518.47;;;1.35;100.00
54389;BME280;40975;50.390;8.640;2023-04-08T02:59:50;99506.09;;;1.21;100.00
54389;BME280;40975;50.390;8.640;2023-04-08T03:02:15;99528.47;;;1.27;100.00
54389;BME280;40975;50.390;8.640;2023-04-08T03:04:41;99527.00;;;1.21;100.00
54389;BME280;40975;50.390;8.640;2023-04-08T03:07:06;99519.63;;;1.12;100.00
54389;BME280;40975;50.390;8.640;2023-04-08T03:09:32;99518.94;;;1.08;100.00
54389;BME280;40975;50.390;8.640;2023-04-08T03:11:57;99524.00;;;1.12;100.00
54389;BME280;40975;50.390;8.640;2023-04-08T03:14:22;99520.63;;;1.10;100.00
54389;BME280;40975;50.390;8.640;2023-04-08T03:16:48;99519.63;;;1.12;100.00
54389;BME280;40975;50.390;8.640;2023-04-08T03:19:13;99518.94;;;1.08;100.00
54389;BME280;40975;50.390;8.640;2023-04-08T03:21:39;99527.53;;;1.11;100.00
54389;BME280;40975;50.390;8.640;2023-04-08T03:24:04;99516.38;;;1.07;100.00
54389;BME280;40975;50.390;8.640;2023-04-08T03:26:29;99524.53;;;1.01;100.00
54389;BME280;40975;50.390;8.640;2023-04-08T03:28:55;99524.44;;;1.02;100.00
54389;BME280;40975;50.390;8.640;2023-04-08T03:31:20;99528.84;;;1.02;100.00
54389;BME280;40975;50.390;8.640;2023-04-08T03:33:46;99519.16;;;1.04;100.00
54389;BME280;40975;50.390;8.640;2023-04-08T03:36:11;99523.63;;;1.02;100.00
54389;BME280;40975;50.390;8.640;2023-04-08T03:38:36;99515.59;;;1.05;100.00
54389;BME280;40975;50.390;8.640;2023-04-08T03:41:02;99526.06;;;1.05;100.00
54389;BME280;40975;50.390;8.640;2023-04-08T03:43:27;99530.47;;;1.04;100.00
54389;BME280;40975;50.390;8.640;2023-04-08T03:45:52;99524.41;;;1.04;100.00
54389;BME280;40975;50.390;8.640;2023-04-08T03:48:18;99534.13;;;1.00;100.00
54389;BME280;40975;50.390;8.640;2023-04-08T03:50:43;99529.06;;;0.97;100.00
54389;BME280;40975;50.390;8.640;2023-04-08T03:53:08;99537.91;;;0.95;100.00
54389;BME280;40975;50.390;8.640;2023-04-08T03:55:36;99529.75;;;1.01;100.00
54389;BME280;40975;50.390;8.640;2023-04-08T03:58:01;99520.78;;;1.06;100.00
54389;BME280;40975;50.390;8.640;2023-04-08T04:00:26;99537.47;;;1.04;100.00
54389;BME280;40975;50.390;8.640;2023-04-08T04:02:52;99529.63;;;1.04;100.00
54389;BME280;40975;50.390;8.640;2023-04-08T04:05:17;99531.28;;;1.05;100.00
54389;BME280;40975;50.390;8.640;2023-04-08T04:07:43;99539.00;;;1.08;100.00
54389;BME280;40975;50.390;8.640;2023-04-08T04:10:08;99536.47;;;1.06;100.00
54389;BME280;40975;50.390;8.640;2023-04-08T04:12:35;99529.44;;;1.07;100.00
54389;BME280;40975;50.390;8.640;2023-04-08T04:15:00;99529.63;;;1.04;100.00
54389;BME280;40975;50.390;8.640;2023-04-08T04:17:25;99537.53;;;1.02;100.00
54389;BME280;40975;50.390;8.640;2023-04-08T04:19:51;99530.47;;;1.04;100.00
54389;BME280;40975;50.390;8.640;2023-04-08T04:22:17;99538.06;;;1.09;100.00
54389;BME280;40975;50.390;8.640;2023-04-08T04:24:46;99534.63;;;1.08;100.00
54389;BME280;40975;50.390;8.640;2023-04-08T04:27:11;99537.16;;;1.10;100.00
54389;BME280;40975;50.390;8.640;2023-04-08T04:29:36;99539.06;;;1.06;100.00
54389;BME280;40975;50.390;8.640;2023-04-08T04:32:02;99534.53;;;1.10;100.00
54389;BME280;40975;50.390;8.640;2023-04-08T04:34:27;99531.69;;;1.15;100.00
54389;BME280;40975;50.390;8.640;2023-04-08T04:36:52;99536.84;;;1.16;100.00
54389;BME280;40975;50.390;8.640;2023-04-08T04:39:17;99536.78;;;1.18;100.00
54389;BME280;40975;50.390;8.640;2023-04-08T04:41:43;99543.69;;;1.19;100.00
54389;BME280;40975;50.390;8.640;2023-04-08T04:44:08;99549.75;;;1.19;100.00
54389;BME280;40975;50.390;8.640;2023-04-08T04:46:34;99540.13;;;1.20;100.00
54389;BME280;40975;50.390;8.640;2023-04-08T04:48:59;99548.47;;;1.28;100.00
54389;BME280;40975;50.390;8.640;2023-04-08T04:51:24;99550.31;;;1.26;100.00
54389;BME280;40975;50.390;8.640;2023-04-08T04:53:51;99553.53;;;1.31;100.00
54389;BME280;40975;50.390;8.640;2023-04-08T04:56:16;99557.78;;;1.34;100.00
54389;BME280;40975;50.390;8.640;2023-04-08T04:58:42;99563.06;;;1.32;100.00
54389;BME280;40975;50.390;8.640;2023-04-08T05:01:07;99559.16;;;1.23;100.00
54389;BME280;40975;50.390;8.640;2023-04-08T05:03:32;99566.00;;;1.26;100.00
54389;BME280;40975;50.390;8.640;2023-04-08T05:05:58;99566.78;;;1.28;100.00
54389;BME280;40975;50.390;8.640;2023-04-08T05:08:23;99559.00;;;1.27;100.00
54389;BME280;40975;50.390;8.640;2023-04-08T05:10:49;99557.84;;;1.32;100.00
54389;BME280;40975;50.390;8.640;2023-04-08T05:13:15;99566.53;;;1.33;100.00
54389;BME280;40975;50.390;8.640;2023-04-08T05:15:40;99567.38;;;1.33;100.00
54389;BME280;40975;50.390;8.640;2023-04-08T05:18:06;99567.16;;;1.38;100.00
54389;BME280;40975;50.390;8.640;2023-04-08T05:20:31;99569.84;;;1.36;100.00
54389;BME280;40975;50.390;8.640;2023-04-08T05:22:56;99572.16;;;1.43;100.00
54389;BME280;40975;50.390;8.640;2023-04-08T05:25:22;99572.91;;;1.45;100.00
54389;BME280;40975;50.390;8.640;2023-04-08T05:27:47;99574.47;;;1.49;100.00
54389;BME280;40975;50.390;8.640;2023-04-08T05:30:12;99576.28;;;1.64;100.00
54389;BME280;40975;50.390;8.640;2023-04-08T05:32:38;99575.22;;;1.68;100.00
54389;BME280;40975;50.390;8.640;2023-04-08T05:35:03;99584.34;;;1.77;100.00
54389;BME280;40975;50.390;8.640;2023-04-08T05:37:29;99578.63;;;1.86;100.00
54389;BME280;40975;50.390;8.640;2023-04-08T05:39:54;99575.47;;;1.97;100.00
54389;BME280;40975;50.390;8.640;2023-04-08T05:42:19;99573.28;;;2.06;100.00
54389;BME280;40975;50.390;8.640;2023-04-08T05:44:45;99579.50;;;2.21;100.00
54389;BME280;40975;50.390;8.640;2023-04-08T05:47:10;99574.84;;;2.42;100.00
54389;BME280;40975;50.390;8.640;2023-04-08T05:49:35;99581.97;;;2.72;100.00
54389;BME280;40975;50.390;8.640;2023-04-08T05:52:01;99573.78;;;2.78;100.00
54389;BME280;40975;50.390;8.640;2023-04-08T05:54:27;99581.38;;;2.99;100.00
54389;BME280;40975;50.390;8.640;2023-04-08T05:56:53;99583.28;;;3.11;100.00
54389;BME280;40975;50.390;8.640;2023-04-08T05:59:18;99584.44;;;3.21;100.00
54389;BME280;40975;50.390;8.640;2023-04-08T06:01:43;99570.31;;;3.24;100.00
54389;BME280;40975;50.390;8.640;2023-04-08T06:04:09;99581.50;;;3.42;100.00
54389;BME280;40975;50.390;8.640;2023-04-08T06:06:37;99585.22;;;3.54;100.00
54389;BME280;40975;50.390;8.640;2023-04-08T06:09:03;99591.34;;;3.69;100.00
54389;BME280;40975;50.390;8.640;2023-04-08T06:11:28;99590.03;;;3.76;100.00
54389;BME280;40975;50.390;8.640;2023-04-08T06:13:54;99595.94;;;3.80;100.00
54389;BME280;40975;50.390;8.640;2023-04-08T06:16:19;99595.19;;;3.92;100.00
54389;BME280;40975;50.390;8.640;2023-04-08T06:18:44;99602.53;;;4.01;100.00
54389;BME280;40975;50.390;8.640;2023-04-08T06:21:10;99608.16;;;4.10;100.00
54389;BME280;40975;50.390;8.640;2023-04-08T06:23:35;99618.84;;;4.21;100.00
54389;BME280;40975;50.390;8.640;2023-04-08T06:26:01;99613.22;;;4.42;100.00
54389;BME280;40975;50.390;8.640;2023-04-08T06:28:28;99613.22;;;4.42;100.00
54389;BME280;40975;50.390;8.640;2023-04-08T06:30:53;99621.84;;;4.44;100.00
54389;BME280;40975;50.390;8.640;2023-04-08T06:33:19;99624.56;;;4.57;100.00
54389;BME280;40975;50.390;8.640;2023-04-08T06:35:44;99624.91;;;4.65;100.00
54389;BME280;40975;50.390;8.640;2023-04-08T06:38:09;99626.13;;;4.74;100.00
54389;BME280;40975;50.390;8.640;2023-04-08T06:40:37;99630.06;;;4.81;100.00
54389;BME280;40975;50.390;8.640;2023-04-08T06:43:03;99634.72;;;4.90;100.00
54389;BME280;40975;50.390;8.640;2023-04-08T06:45:34;99635.38;;;4.94;100.00
54389;BME280;40975;50.390;8.640;2023-04-08T06:48:00;99636.97;;;4.96;100.00
54389;BME280;40975;50.390;8.640;2023-04-08T06:50:25;99644.56;;;5.01;100.00
54389;BME280;40975;50.390;8.640;2023-04-08T06:52:50;99642.22;;;4.96;100.00
54389;BME280;40975;50.390;8.640;2023-04-08T06:55:16;99647.94;;;5.03;100.00
54389;BME280;40975;50.390;8.640;2023-04-08T06:57:41;99647.66;;;5.08;100.00
54389;BME280;40975;50.390;8.640;2023-04-08T07:00:07;99646.59;;;5.10;100.00
54389;BME280;40975;50.390;8.640;2023-04-08T07:02:33;99652.25;;;5.04;100.00
54389;BME280;40975;50.390;8.640;2023-04-08T07:04:58;99654.41;;;5.12;100.00
54389;BME280;40975;50.390;8.640;2023-04-08T07:07:23;99649.03;;;5.13;100.00
54389;BME280;40975;50.390;8.640;2023-04-08T07:09:49;99650.44;;;5.19;100.00
54389;BME280;40975;50.390;8.640;2023-04-08T07:12:15;99650.78;;;5.27;100.00
54389;BME280;40975;50.390;8.640;2023-04-08T07:14:40;99659.22;;;5.33;100.00
54389;BME280;40975;50.390;8.640;2023-04-08T07:17:06;99662.84;;;5.44;100.00
54389;BME280;40975;50.390;8.640;2023-04-08T07:19:31;99677.22;;;5.53;100.00
54389;BME280;40975;50.390;8.640;2023-04-08T07:21:56;99683.94;;;5.57;100.00
54389;BME280;40975;50.390;8.640;2023-04-08T07:24:22;99688.25;;;5.58;100.00
54389;BME280;40975;50.390;8.640;2023-04-08T07:26:47;99687.00;;;5.51;100.00
54389;BME280;40975;50.390;8.640;2023-04-08T07:29:13;99686.13;;;5.51;100.00
54389;BME280;40975;50.390;8.640;2023-04-08T07:31:42;99684.84;;;5.43;100.00
54389;BME280;40975;50.390;8.640;2023-04-08T07:34:07;99689.66;;;5.37;100.00
54389;BME280;40975;50.390;8.640;2023-04-08T07:36:32;99681.97;;;5.34;100.00
54389;BME280;40975;50.390;8.640;2023-04-08T07:38:58;99685.63;;;5.31;100.00
54389;BME280;40975;50.390;8.640;2023-04-08T07:41:23;99695.88;;;5.36;100.00
54389;BME280;40975;50.390;8.640;2023-04-08T07:43:48;99700.13;;;5.38;100.00
54389;BME280;40975;50.390;8.640;2023-04-08T07:46:14;99703.28;;;5.43;100.00
54389;BME280;40975;50.390;8.640;2023-04-08T07:48:39;99697.25;;;5.41;100.00
54389;BME280;40975;50.390;8.640;2023-04-08T07:51:07;99704.66;;;5.49;100.00
54389;BME280;40975;50.390;8.640;2023-04-08T07:53:32;99698.66;;;5.47;100.00
54389;BME280;40975;50.390;8.640;2023-04-08T07:55:58;99707.50;;;5.46;100.00
54389;BME280;40975;50.390;8.640;2023-04-08T07:58:24;99703.88;;;5.34;100.00
54389;BME280;40975;50.390;8.640;2023-04-08T08:00:49;99698.78;;;5.31;100.00
54389;BME280;40975;50.390;8.640;2023-04-08T08:03:15;99710.81;;;5.35;100.00
54389;BME280;40975;50.390;8.640;2023-04-08T08:05:40;99710.97;;;5.47;100.00
54389;BME280;40975;50.390;8.640;2023-04-08T08:08:06;99714.56;;;5.45;100.00
54389;BME280;40975;50.390;8.640;2023-04-08T08:10:32;99713.78;;;5.58;100.00
54389;BME280;40975;50.390;8.640;2023-04-08T08:12:58;99715.88;;;5.66;100.00
54389;BME280;40975;50.390;8.640;2023-04-08T08:15:23;99708.13;;;5.77;100.00
54389;BME280;40975;50.390;8.640;2023-04-08T08:17:48;99717.72;;;5.78;100.00
54389;BME280;40975;50.390;8.640;2023-04-08T08:20:14;99723.75;;;5.93;100.00
54389;BME280;40975;50.390;8.640;2023-04-08T08:22:40;99715.53;;;5.98;100.00
54389;BME280;40975;50.390;8.640;2023-04-08T08:25:06;99723.63;;;6.09;100.00
54389;BME280;40975;50.390;8.640;2023-04-08T08:27:33;99724.31;;;5.98;100.00
54389;BME280;40975;50.390;8.640;2023-04-08T08:29:58;99727.31;;;6.06;100.00
54389;BME280;40975;50.390;8.640;2023-04-08T08:32:24;99733.72;;;6.02;100.00
54389;BME280;40975;50.390;8.640;2023-04-08T08:34:49;99738.88;;;6.04;100.00
54389;BME280;40975;50.390;8.640;2023-04-08T08:37:14;99734.47;;;6.17;100.00
54389;BME280;40975;50.390;8.640;2023-04-08T08:39:40;99742.00;;;6.36;100.00
54389;BME280;40975;50.390;8.640;2023-04-08T08:42:05;99744.13;;;6.57;100.00
54389;BME280;40975;50.390;8.640;2023-04-08T08:44:30;99748.44;;;6.71;100.00
54389;BME280;40975;50.390;8.640;2023-04-08T08:46:56;99742.59;;;6.79;100.00
54389;BME280;40975;50.390;8.640;2023-04-08T08:49:21;99744.41;;;6.78;100.00
54389;BME280;40975;50.390;8.640;2023-04-08T08:51:48;99749.78;;;6.90;100.00
54389;BME280;40975;50.390;8.640;2023-04-08T08:54:15;99759.78;;;7.10;100.00
54389;BME280;40975;50.390;8.640;2023-04-08T08:56:41;99759.09;;;7.32;100.00
54389;BME280;40975;50.390;8.640;2023-04-08T08:59:10;99756.78;;;7.28;100.00
54389;BME280;40975;50.390;8.640;2023-04-08T09:01:37;99761.34;;;7.13;100.00
54389;BME280;40975;50.390;8.640;2023-04-08T09:06:36;99755.66;;;7.06;100.00
54389;BME280;40975;50.390;8.640;2023-04-08T09:09:02;99755.53;;;7.21;100.00
54389;BME280;40975;50.390;8.640;2023-04-08T09:11:30;99761.78;;;7.20;100.00
54389;BME280;40975;50.390;8.640;2023-04-08T09:13:56;99765.34;;;7.19;100.00
54389;BME280;40975;50.390;8.640;2023-04-08T09:16:21;99768.50;;;7.24;100.00
54389;BME280;40975;50.390;8.640;2023-04-08T09:18:48;99762.06;;;7.28;100.00
54389;BME280;40975;50.390;8.640;2023-04-08T09:21:15;99772.28;;;7.32;100.00
54389;BME280;40975;50.390;8.640;2023-04-08T09:23:50;99769.44;;;7.36;100.00
54389;BME280;40975;50.390;8.640;2023-04-08T09:26:20;99772.03;;;7.49;100.00
54389;BME280;40975;50.390;8.640;2023-04-08T09:31:28;99771.56;;;7.30;100.00
54389;BME280;40975;50.390;8.640;2023-04-08T09:33:59;99766.59;;;7.26;100.00
54389;BME280;40975;50.390;8.640;2023-04-08T09:36:25;99763.41;;;7.34;100.00
54389;BME280;40975;50.390;8.640;2023-04-08T09:38:51;99778.41;;;7.46;100.00
54389;BME280;40975;50.390;8.640;2023-04-08T09:41:18;99773.72;;;7.50;100.00
54389;BME280;40975;50.390;8.640;2023-04-08T09:43:49;99778.66;;;7.30;100.00
54389;BME280;40975;50.390;8.640;2023-04-08T09:46:17;99785.25;;;7.49;100.00
54389;BME280;40975;50.390;8.640;2023-04-08T09:48:54;99777.53;;;7.45;100.00
54389;BME280;40975;50.390;8.640;2023-04-08T09:51:22;99776.63;;;7.34;100.00
54389;BME280;40975;50.390;8.640;2023-04-08T09:53:55;99784.03;;;7.28;100.00
54389;BME280;40975;50.390;8.640;2023-04-08T09:56:21;99784.13;;;7.27;100.00
54389;BME280;40975;50.390;8.640;2023-04-08T09:58:51;99773.72;;;7.50;100.00
54389;BME280;40975;50.390;8.640;2023-04-08T10:01:23;99787.28;;;7.93;100.00
54389;BME280;40975;50.390;8.640;2023-04-08T10:03:53;99781.50;;;8.60;100.00
54389;BME280;40975;50.390;8.640;2023-04-08T10:06:21;99780.97;;;9.01;100.00
54389;BME280;40975;50.390;8.640;2023-04-08T10:08:52;99778.31;;;9.13;98.43
54389;BME280;40975;50.390;8.640;2023-04-08T10:11:17;99778.03;;;9.39;98.38
54389;BME280;40975;50.390;8.640;2023-04-08T10:13:43;99785.97;;;9.39;99.92
54389;BME280;40975;50.390;8.640;2023-04-08T10:16:18;99775.22;;;9.63;95.53
54389;BME280;40975;50.390;8.640;2023-04-08T10:18:46;99779.91;;;9.59;93.27
54389;BME280;40975;50.390;8.640;2023-04-08T10:21:37;99785.34;;;9.58;92.53
54389;BME280;40975;50.390;8.640;2023-04-08T10:24:06;99774.16;;;10.19;93.13
54389;BME280;40975;50.390;8.640;2023-04-08T10:26:35;99778.34;;;10.54;88.88
54389;BME280;40975;50.390;8.640;2023-04-08T10:31:52;99776.16;;;10.60;87.28
54389;BME280;40975;50.390;8.640;2023-04-08T10:34:19;99782.63;;;10.98;88.51
54389;BME280;40975;50.390;8.640;2023-04-08T10:36:46;99775.84;;;11.65;85.41
54389;BME280;40975;50.390;8.640;2023-04-08T10:39:12;99781.88;;;11.77;83.79
54389;BME280;40975;50.390;8.640;2023-04-08T10:41:44;99775.34;;;11.41;84.05
54389;BME280;40975;50.390;8.640;2023-04-08T10:44:25;99775.63;;;11.98;84.72
54389;BME280;40975;50.390;8.640;2023-04-08T10:46:52;99768.41;;;11.09;84.21
54389;BME280;40975;50.390;8.640;2023-04-08T10:49:18;99772.84;;;10.46;87.97
54389;BME280;40975;50.390;8.640;2023-04-08T10:51:44;99783.38;;;10.04;91.02
54389;BME280;40975;50.390;8.640;2023-04-08T10:54:14;99779.78;;;9.61;91.91
54389;BME280;40975;50.390;8.640;2023-04-08T10:56:51;99786.50;;;9.21;94.88
54389;BME280;40975;50.390;8.640;2023-04-08T10:59:28;99783.34;;;9.16;96.63
54389;BME280;40975;50.390;8.640;2023-04-08T11:01:54;99777.94;;;8.95;96.92
54389;BME280;40975;50.390;8.640;2023-04-08T11:04:20;99778.41;;;8.89;98.47
54389;BME280;40975;50.390;8.640;2023-04-08T11:06:47;99787.31;;;8.99;99.74
54389;BME280;40975;50.390;8.640;2023-04-08T11:09:13;99776.72;;;9.22;97.35
54389;BME280;40975;50.390;8.640;2023-04-08T11:11:43;99778.91;;;9.28;97.79
54389;BME280;40975;50.390;8.640;2023-04-08T11:14:09;99777.81;;;9.08;100.00
54389;BME280;40975;50.390;8.640;2023-04-08T11:16:36;99779.63;;;9.07;99.45
54389;BME280;40975;50.390;8.640;2023-04-08T11:19:03;99773.47;;;9.29;99.78
54389;BME280;40975;50.390;8.640;2023-04-08T11:21:30;99770.53;;;9.44;100.00
54389;BME280;40975;50.390;8.640;2023-04-08T11:23:56;99783.97;;;9.75;99.99
54389;BME280;40975;50.390;8.640;2023-04-08T11:26:22;99780.50;;;9.63;97.82
54389;BME280;40975;50.390;8.640;2023-04-08T11:28:47;99783.28;;;9.73;98.14
54389;BME280;40975;50.390;8.640;2023-04-08T11:31:14;99775.69;;;10.01;98.16
54389;BME280;40975;50.390;8.640;2023-04-08T11:33:47;99780.88;;;10.23;97.97
54389;BME280;40975;50.390;8.640;2023-04-08T11:36:14;99781.44;;;10.38;98.59
54389;BME280;40975;50.390;8.640;2023-04-08T11:38:41;99767.72;;;10.76;99.15
54389;BME280;40975;50.390;8.640;2023-04-08T11:41:06;99771.25;;;10.86;100.00
54389;BME280;40975;50.390;8.640;2023-04-08T11:43:32;99772.88;;;11.08;96.86
54389;BME280;40975;50.390;8.640;2023-04-08T11:45:57;99769.09;;;11.11;95.33
54389;BME280;40975;50.390;8.640;2023-04-08T11:48:23;99771.84;;;10.99;93.38
54389;BME280;40975;50.390;8.640;2023-04-08T11:51:04;99771.50;;;10.83;93.10
54389;BME280;40975;50.390;8.640;2023-04-08T11:53:30;99776.19;;;10.69;94.92
54389;BME280;40975;50.390;8.640;2023-04-08T11:55:55;99778.53;;;10.63;96.01
54389;BME280;40975;50.390;8.640;2023-04-08T11:58:20;99780.09;;;10.44;96.63
54389;BME280;40975;50.390;8.640;2023-04-08T12:00:46;99776.63;;;10.32;95.69
54389;BME280;40975;50.390;8.640;2023-04-08T12:03:11;99784.53;;;10.22;98.58
54389;BME280;40975;50.390;8.640;2023-04-08T12:05:37;99781.97;;;10.21;97.63
54389;BME280;40975;50.390;8.640;2023-04-08T12:08:03;99784.47;;;10.01;98.40
54389;BME280;40975;50.390;8.640;2023-04-08T12:10:28;99792.69;;;10.31;98.87
54389;BME280;40975;50.390;8.640;2023-04-08T12:12:54;99788.72;;;10.25;99.47
54389;BME280;40975;50.390;8.640;2023-04-08T12:15:19;99785.00;;;9.95;100.00
54389;BME280;40975;50.390;8.640;2023-04-08T12:17:44;99787.56;;;10.18;100.00
54389;BME280;40975;50.390;8.640;2023-04-08T12:20:11;99792.00;;;10.50;100.00
54389;BME280;40975;50.390;8.640;2023-04-08T12:22:37;99787.19;;;10.65;98.58
54389;BME280;40975;50.390;8.640;2023-04-08T12:25:03;99789.66;;;10.35;96.37
54389;BME280;40975;50.390;8.640;2023-04-08T12:27:29;99785.91;;;10.38;96.21
54389;BME280;40975;50.390;8.640;2023-04-08T12:29:54;99790.06;;;10.52;97.64
54389;BME280;40975;50.390;8.640;2023-04-08T12:32:20;99789.66;;;10.78;94.48
54389;BME280;40975;50.390;8.640;2023-04-08T12:34:46;99782.78;;;11.06;95.97
54389;BME280;40975;50.390;8.640;2023-04-08T12:37:11;99777.47;;;10.96;97.73
54389;BME280;40975;50.390;8.640;2023-04-08T12:39:36;99775.88;;;10.94;96.56
54389;BME280;40975;50.390;8.640;2023-04-08T12:42:02;99775.13;;;10.82;97.45
54389;BME280;40975;50.390;8.640;2023-04-08T12:44:28;99779.25;;;10.44;96.51
54389;BME280;40975;50.390;8.640;2023-04-08T12:46:54;99787.81;;;10.36;98.89
54389;BME280;40975;50.390;8.640;2023-04-08T12:49:19;99781.31;;;10.40;99.42
54389;BME280;40975;50.390;8.640;2023-04-08T12:51:45;99781.25;;;10.51;97.49
54389;BME280;40975;50.390;8.640;2023-04-08T12:54:10;99775.81;;;10.53;97.02
54389;BME280;40975;50.390;8.640;2023-04-08T12:56:36;99772.66;;;10.38;97.74
54389;BME280;40975;50.390;8.640;2023-04-08T12:59:03;99770.75;;;10.71;100.00
54389;BME280;40975;50.390;8.640;2023-04-08T13:01:28;99772.66;;;10.90;100.00
54389;BME280;40975;50.390;8.640;2023-04-08T13:03:55;99764.00;;;11.29;95.38
54389;BME280;40975;50.390;8.640;2023-04-08T13:06:20;99765.63;;;11.61;94.70
54389;BME280;40975;50.390;8.640;2023-04-08T13:08:45;99767.56;;;11.59;93.97